createdAt,value
2022-09-27T00:02:27.007Z,43.78
2022-09-27T00:04:58.497Z,42.92
2022-09-27T00:07:25.795Z,40.20
2022-09-27T00:09:52.870Z,40.50
2022-09-27T00:12:20.686Z,40.40
2022-09-27T00:14:47.982Z,39.10
2022-09-27T00:17:15.174Z,38.85
2022-09-27T00:19:44.999Z,39.70
2022-09-27T00:22:14.435Z,38.28
2022-09-27T00:27:14.239Z,40.20
2022-09-27T00:29:44.910Z,37.92
2022-09-27T00:32:14.792Z,38.45
2022-09-27T00:34:44.834Z,36.92
2022-09-27T00:37:14.049Z,38.53
2022-09-27T00:39:43.391Z,38.35
2022-09-27T00:42:15.150Z,37.30
2022-09-27T00:44:44.355Z,38.88
2022-09-27T00:47:25.118Z,38.80
2022-09-27T00:50:38.321Z,39.33
2022-09-27T00:53:17.715Z,38.88
2022-09-27T00:56:04.756Z,41.30
2022-09-27T00:58:39.795Z,40.92
2022-09-27T01:01:13.772Z,41.50
2022-09-27T01:03:56.661Z,41.05
2022-09-27T01:06:26.268Z,43.95
2022-09-27T01:08:55.787Z,42.70
2022-09-27T01:11:30.726Z,46.72
2022-09-27T01:14:11.207Z,46.45
2022-09-27T01:16:46.650Z,48.25
2022-09-27T01:19:34.450Z,46.47
2022-09-27T01:22:08.226Z,45.95
2022-09-27T01:25:09.403Z,46.15
2022-09-27T01:28:00.123Z,46.33
2022-09-27T01:30:43.267Z,45.05
2022-09-27T01:33:39.897Z,45.83
2022-09-27T01:36:27.766Z,44.67
2022-09-27T01:39:01.412Z,43.55
2022-09-27T01:41:57.639Z,45.90
2022-09-27T01:44:49.064Z,44.75
2022-09-27T01:47:31.985Z,45.35
2022-09-27T01:50:25.517Z,44.60
2022-09-27T01:53:05.046Z,44.38
2022-09-27T01:55:41.442Z,44.38
2022-09-27T01:58:33.971Z,46.22
2022-09-27T02:01:03.364Z,44.20
2022-09-27T02:03:36.075Z,43.03
2022-09-27T02:06:41.222Z,41.65
2022-09-27T02:09:29.002Z,44.35
2022-09-27T02:12:24.081Z,41.58
2022-09-27T02:14:57.789Z,42.30
2022-09-27T02:17:52.001Z,43.13
2022-09-27T02:20:28.661Z,42.08
2022-09-27T02:23:01.960Z,42.03
2022-09-27T02:25:48.394Z,43.75
2022-09-27T02:30:56.017Z,39.90
2022-09-27T02:33:31.711Z,42.33
2022-09-27T02:35:59.653Z,42.40
2022-09-27T02:38:27.042Z,40.92
2022-09-27T02:40:57.292Z,38.55
2022-09-27T02:43:29.186Z,41.47
2022-09-27T02:46:16.747Z,39.78
2022-09-27T02:49:27.678Z,39.40
2022-09-27T02:52:54.194Z,37.13
2022-09-27T02:55:31.303Z,38.88
2022-09-27T02:58:33.785Z,35.60
2022-09-27T03:01:47.558Z,39.08
2022-09-27T03:04:48.880Z,39.80
2022-09-27T03:07:16.685Z,39.67
2022-09-27T03:09:46.285Z,39.15
2022-09-27T03:12:13.814Z,35.83
2022-09-27T03:14:43.803Z,37.42
2022-09-27T03:17:30.944Z,38.55
2022-09-27T03:20:17.951Z,38.88
2022-09-27T03:23:07.012Z,39.22
2022-09-27T03:25:34.407Z,37.28
2022-09-27T03:28:03.974Z,37.40
2022-09-27T03:30:32.151Z,38.22
2022-09-27T03:32:59.505Z,34.33
2022-09-27T03:35:49.508Z,34.03
2022-09-27T03:38:19.460Z,33.30
2022-09-27T03:40:49.021Z,35.55
2022-09-27T03:43:16.440Z,35.85
2022-09-27T03:45:46.151Z,33.65
2022-09-27T03:48:15.672Z,32.08
2022-09-27T03:50:45.188Z,33.28
2022-09-27T03:53:12.570Z,32.92
2022-09-27T03:55:39.693Z,30.48
2022-09-27T03:58:07.169Z,32.15
2022-09-27T04:00:37.281Z,31.10
2022-09-27T04:03:06.656Z,32.45
2022-09-27T04:05:55.138Z,31.83
2022-09-27T04:08:32.995Z,34.47
2022-09-27T04:11:00.362Z,33.97
2022-09-27T04:13:27.722Z,34.33
2022-09-27T04:15:56.748Z,34.20
2022-09-27T04:18:33.390Z,32.42
2022-09-27T04:21:23.886Z,33.10
2022-09-27T04:23:56.202Z,33.17
2022-09-27T04:26:26.691Z,34.55
2022-09-27T04:29:04.432Z,35.47
2022-09-27T04:31:40.093Z,35.03
2022-09-27T04:34:46.536Z,34.75
2022-09-27T04:37:23.200Z,33.20
2022-09-27T04:39:56.765Z,34.70
2022-09-27T04:44:56.250Z,35.35
2022-09-27T04:47:25.695Z,36.95
2022-09-27T04:49:55.095Z,34.08
2022-09-27T04:52:24.553Z,35.17
2022-09-27T04:54:56.187Z,35.67
2022-09-27T04:57:23.410Z,34.53
2022-09-27T04:59:51.596Z,36.65
2022-09-27T05:02:18.925Z,34.22
2022-09-27T05:05:01.536Z,34.00
2022-09-27T05:07:38.182Z,32.42
2022-09-27T05:10:10.830Z,29.90
2022-09-27T05:12:38.073Z,33.85
2022-09-27T05:15:08.728Z,28.55
2022-09-27T05:17:58.774Z,28.80
2022-09-27T05:20:47.856Z,26.90
2022-09-27T05:23:21.910Z,24.98
2022-09-27T05:25:49.137Z,27.63
2022-09-27T05:28:24.116Z,27.02
2022-09-27T05:30:56.615Z,27.58
2022-09-27T05:33:26.136Z,27.17
2022-09-27T05:36:20.447Z,26.52
2022-09-27T05:38:49.841Z,28.50
2022-09-27T05:41:21.195Z,28.38
2022-09-27T05:43:49.284Z,27.73
2022-09-27T05:46:17.017Z,29.65
2022-09-27T05:48:45.053Z,29.90
2022-09-27T05:51:12.158Z,28.77
2022-09-27T05:53:40.791Z,31.45
2022-09-27T05:56:15.611Z,31.08
2022-09-27T05:59:08.350Z,33.65
2022-09-27T06:01:55.789Z,34.55
2022-09-27T06:04:41.403Z,34.33
2022-09-27T06:07:32.319Z,33.45
2022-09-27T06:10:03.794Z,31.83
2022-09-27T06:12:34.033Z,30.95
2022-09-27T06:15:02.347Z,30.35
2022-09-27T06:17:46.986Z,30.33
2022-09-27T06:20:19.307Z,31.67
2022-09-27T06:22:49.248Z,27.27
2022-09-27T06:25:17.340Z,28.40
2022-09-27T06:28:01.029Z,27.40
2022-09-27T06:30:31.641Z,26.73
2022-09-27T06:33:06.752Z,27.52
2022-09-27T06:35:42.435Z,25.92
2022-09-27T06:38:15.630Z,27.63
2022-09-27T06:40:49.897Z,27.88
2022-09-27T06:43:22.450Z,26.30
2022-09-27T06:46:22.255Z,24.70
2022-09-27T06:49:07.891Z,26.90
2022-09-27T06:51:35.881Z,23.75
2022-09-27T06:54:03.073Z,26.77
2022-09-27T06:56:32.545Z,25.67
2022-09-27T06:59:19.377Z,25.80
2022-09-27T07:01:52.560Z,25.75
2022-09-27T07:04:43.182Z,25.52
2022-09-27T07:07:20.758Z,27.05
2022-09-27T07:09:49.651Z,26.60
2022-09-27T07:12:16.943Z,25.13
2022-09-27T07:14:46.619Z,25.23
2022-09-27T07:17:19.272Z,24.63
2022-09-27T07:19:51.304Z,24.73
2022-09-27T07:22:18.761Z,22.60
2022-09-27T07:24:54.239Z,22.98
2022-09-27T07:27:26.718Z,21.80
2022-09-27T07:29:56.872Z,20.42
2022-09-27T07:32:25.425Z,20.95
2022-09-27T07:34:54.900Z,19.40
2022-09-27T07:37:25.136Z,20.13
2022-09-27T07:39:55.450Z,19.45
2022-09-27T07:42:28.789Z,19.02
2022-09-27T07:44:57.473Z,22.90
2022-09-27T07:47:30.500Z,21.02
2022-09-27T07:50:13.694Z,22.27
2022-09-27T07:52:47.942Z,23.38
2022-09-27T07:55:37.736Z,22.10
2022-09-27T07:58:22.236Z,22.50
2022-09-27T08:00:51.754Z,23.50
2022-09-27T08:03:21.580Z,23.52
2022-09-27T08:05:51.208Z,23.58
2022-09-27T08:08:18.727Z,23.23
2022-09-27T08:10:48.277Z,23.27
2022-09-27T08:13:20.384Z,23.67
2022-09-27T08:15:52.855Z,22.73
2022-09-27T08:18:25.969Z,22.98
2022-09-27T08:21:00.054Z,22.63
2022-09-27T08:23:31.053Z,23.23
2022-09-27T08:26:20.770Z,23.88
2022-09-27T08:28:56.456Z,28.95
2022-09-27T08:31:26.666Z,30.65
2022-09-27T08:36:28.807Z,32.15
2022-09-27T08:39:00.777Z,35.47
2022-09-27T08:42:14.680Z,34.00
2022-09-27T08:45:08.188Z,36.95
2022-09-27T08:47:55.142Z,31.75
2022-09-27T08:50:41.883Z,31.48
2022-09-27T08:53:33.998Z,31.33
2022-09-27T08:56:03.779Z,31.80
2022-09-27T08:58:49.326Z,38.17
2022-09-27T09:01:25.167Z,36.50
2022-09-27T09:04:46.396Z,37.78
2022-09-27T09:07:24.543Z,37.78
2022-09-27T09:10:36.401Z,38.03
2022-09-27T09:13:29.899Z,37.53
2022-09-27T09:16:13.967Z,37.45
2022-09-27T09:19:32.722Z,35.72
2022-09-27T09:22:39.258Z,36.20
2022-09-27T09:25:55.201Z,36.00
2022-09-27T09:28:41.804Z,36.40
2022-09-27T09:31:13.014Z,33.55
2022-09-27T09:33:50.740Z,36.83
2022-09-27T09:36:46.222Z,36.25
2022-09-27T09:39:29.338Z,32.63
2022-09-27T09:42:09.216Z,34.03
2022-09-27T09:45:06.472Z,32.42
2022-09-27T09:47:45.485Z,31.90
2022-09-27T09:50:31.018Z,31.05
2022-09-27T09:53:21.703Z,30.73
2022-09-27T09:56:05.782Z,31.77
2022-09-27T09:58:42.314Z,30.83
2022-09-27T10:01:46.153Z,30.77
2022-09-27T10:04:28.517Z,29.83
2022-09-27T10:07:01.212Z,29.67
2022-09-27T10:09:35.120Z,29.90
2022-09-27T10:12:17.823Z,29.05
2022-09-27T10:14:49.025Z,27.65
2022-09-27T10:17:21.369Z,25.15
2022-09-27T10:19:54.493Z,26.40
2022-09-27T10:22:29.169Z,26.85
2022-09-27T10:25:07.281Z,25.77
2022-09-27T10:27:56.116Z,24.85
2022-09-27T10:30:34.613Z,24.58
2022-09-27T10:33:26.662Z,23.75
2022-09-27T10:36:03.938Z,24.77
2022-09-27T10:38:37.046Z,21.75
2022-09-27T10:41:38.672Z,20.80
2022-09-27T10:44:17.754Z,19.83
2022-09-27T10:46:50.987Z,20.55
2022-09-27T10:49:41.619Z,17.60
2022-09-27T10:52:42.664Z,18.20
2022-09-27T10:55:28.431Z,17.83
2022-09-27T10:57:56.802Z,16.95
2022-09-27T11:00:37.747Z,19.15
2022-09-27T11:03:13.976Z,19.10
2022-09-27T11:05:45.333Z,18.73
2022-09-27T11:11:17.659Z,17.45
2022-09-27T11:13:58.057Z,16.17
2022-09-27T11:16:48.344Z,16.58
2022-09-27T11:19:25.005Z,14.98
2022-09-27T11:22:03.830Z,15.00
2022-09-27T11:25:00.883Z,14.82
2022-09-27T11:27:57.310Z,15.65
2022-09-27T11:30:42.134Z,15.55
2022-09-27T11:33:41.359Z,15.65
2022-09-27T11:36:39.181Z,14.15
2022-09-27T11:39:18.736Z,15.13
2022-09-27T11:42:23.730Z,15.18
2022-09-27T11:45:27.883Z,14.10
2022-09-27T11:48:01.611Z,15.25
2022-09-27T11:51:06.754Z,13.70
2022-09-27T11:53:46.306Z,12.30
2022-09-27T11:56:18.985Z,10.85
2022-09-27T11:59:05.249Z,11.13
2022-09-27T12:01:54.438Z,10.35
2022-09-27T12:04:49.992Z,13.32
2022-09-27T12:07:24.715Z,11.75
2022-09-27T12:10:01.326Z,11.55
2022-09-27T12:12:36.045Z,11.32
2022-09-27T12:15:09.682Z,10.80
2022-09-27T12:17:44.133Z,9.95
2022-09-27T12:20:25.480Z,10.68
2022-09-27T12:23:09.613Z,10.18
2022-09-27T12:28:47.083Z,9.60
2022-09-27T12:32:00.614Z,10.48
2022-09-27T12:34:46.120Z,10.80
2022-09-27T12:37:25.350Z,9.95
2022-09-27T12:40:06.371Z,11.27
2022-09-27T12:43:12.936Z,10.45
2022-09-27T12:46:07.961Z,9.77
2022-09-27T12:49:06.800Z,10.48
2022-09-27T12:51:52.521Z,9.43
2022-09-27T12:54:46.052Z,9.70
2022-09-27T12:57:18.238Z,9.95
2022-09-27T12:59:50.113Z,10.13
2022-09-27T13:02:29.144Z,9.35
2022-09-27T13:05:20.533Z,11.05
2022-09-27T13:08:14.268Z,8.48
2022-09-27T13:10:52.883Z,9.32
2022-09-27T13:13:34.237Z,9.95
2022-09-27T13:16:07.778Z,10.07
2022-09-27T13:18:49.876Z,10.07
2022-09-27T13:21:56.406Z,9.75
2022-09-27T13:24:43.349Z,8.70
2022-09-27T13:27:42.641Z,7.32
2022-09-27T13:30:19.113Z,9.07
2022-09-27T13:33:09.936Z,8.05
2022-09-27T13:36:20.598Z,9.02
2022-09-27T13:39:01.359Z,9.05
2022-09-27T13:41:46.650Z,8.73
2022-09-27T13:44:34.970Z,9.90
2022-09-27T13:47:11.707Z,8.68
2022-09-27T13:49:42.568Z,7.93
2022-09-27T13:52:33.626Z,8.35
2022-09-27T13:55:45.862Z,6.45
2022-09-27T13:58:37.855Z,6.75
2022-09-27T14:01:29.551Z,6.03
2022-09-27T14:04:18.598Z,6.60
2022-09-27T14:06:57.292Z,6.53
2022-09-27T14:09:31.984Z,7.15
2022-09-27T14:12:19.220Z,6.68
2022-09-27T14:14:49.624Z,6.70
2022-09-27T14:17:20.131Z,7.43
2022-09-27T14:19:51.255Z,9.73
2022-09-27T14:22:23.707Z,10.13
2022-09-27T14:24:57.870Z,11.50
2022-09-27T14:27:36.977Z,10.88
2022-09-27T14:30:21.869Z,11.63
2022-09-27T14:33:28.673Z,11.77
2022-09-27T14:36:16.098Z,12.15
2022-09-27T14:38:48.270Z,11.48
2022-09-27T14:41:27.809Z,12.38
2022-09-27T14:43:56.290Z,11.23
2022-09-27T14:46:29.938Z,11.60
2022-09-27T14:48:57.957Z,11.80
2022-09-27T14:51:32.657Z,12.20
2022-09-27T14:54:01.466Z,11.68
2022-09-27T14:56:38.056Z,13.70
2022-09-27T14:59:16.240Z,13.27
2022-09-27T15:01:53.271Z,12.82
2022-09-27T15:04:23.416Z,14.10
2022-09-27T15:06:51.953Z,13.82
2022-09-27T15:09:23.023Z,13.95
2022-09-27T15:11:57.256Z,14.63
2022-09-27T15:14:26.003Z,13.48
2022-09-27T15:16:53.275Z,14.10
2022-09-27T15:19:24.172Z,14.32
2022-09-27T15:21:54.458Z,15.07
2022-09-27T15:24:39.478Z,16.15
2022-09-27T15:27:23.782Z,15.55
2022-09-27T15:29:54.698Z,16.85
2022-09-27T15:32:24.193Z,17.17
2022-09-27T15:34:51.560Z,16.95
2022-09-27T15:37:35.418Z,15.85
2022-09-27T15:40:39.679Z,15.40
2022-09-27T15:43:23.131Z,16.77
2022-09-27T15:45:52.745Z,16.75
2022-09-27T15:48:21.158Z,16.90
2022-09-27T15:50:50.103Z,18.25
2022-09-27T15:53:35.874Z,17.42
2022-09-27T15:56:08.739Z,17.83
2022-09-27T15:58:41.181Z,17.58
2022-09-27T16:01:15.347Z,17.40
2022-09-27T16:03:50.511Z,16.70
2022-09-27T16:06:20.951Z,17.55
2022-09-27T16:08:48.445Z,18.70
2022-09-27T16:11:18.023Z,18.50
2022-09-27T16:13:45.150Z,17.55
2022-09-27T16:16:19.414Z,8.80
2022-09-27T16:18:47.325Z,6.20
2022-09-27T16:21:15.154Z,5.38
2022-09-27T16:23:42.543Z,4.55
2022-09-27T16:26:09.696Z,5.90
2022-09-27T16:28:37.104Z,4.45
2022-09-27T16:31:11.402Z,5.75
2022-09-27T16:33:38.926Z,6.78
2022-09-27T16:36:14.315Z,4.95
2022-09-27T16:38:44.586Z,3.92
2022-09-27T16:41:11.690Z,3.08
2022-09-27T16:43:40.962Z,3.25
2022-09-27T16:46:18.566Z,2.35
2022-09-27T16:48:49.191Z,2.88
2022-09-27T16:51:36.625Z,2.42
2022-09-27T16:54:05.892Z,2.45
2022-09-27T16:56:37.106Z,2.45
2022-09-27T16:59:09.731Z,1.58
2022-09-27T17:01:37.311Z,2.30
2022-09-27T17:04:07.212Z,2.20
2022-09-27T17:06:35.996Z,1.48
2022-09-27T17:09:07.833Z,1.10
2022-09-27T17:11:37.544Z,1.70
2022-09-27T17:14:14.563Z,1.67
2022-09-27T17:16:45.543Z,2.17
2022-09-27T17:19:14.062Z,2.28
2022-09-27T17:21:42.370Z,2.25
2022-09-27T17:24:12.855Z,2.40
2022-09-27T17:26:40.723Z,2.03
2022-09-27T17:29:10.503Z,2.58
2022-09-27T17:31:41.633Z,2.58
2022-09-27T17:34:12.177Z,2.45
2022-09-27T17:36:48.174Z,1.98
2022-09-27T17:39:18.651Z,2.28
2022-09-27T17:41:49.897Z,2.63
2022-09-27T17:44:20.349Z,2.15
2022-09-27T17:47:09.893Z,2.03
2022-09-27T17:49:58.466Z,1.60
2022-09-27T17:52:28.701Z,1.58
2022-09-27T17:54:59.153Z,1.95
2022-09-27T17:57:26.508Z,1.83
2022-09-27T17:59:57.791Z,1.65
2022-09-27T18:02:30.101Z,1.55
2022-09-27T18:05:02.498Z,1.90
2022-09-27T18:07:33.458Z,1.60
2022-09-27T18:10:05.724Z,0.73
2022-09-27T18:12:34.756Z,1.08
2022-09-27T18:15:02.677Z,0.95
2022-09-27T18:17:32.788Z,1.02
2022-09-27T18:20:03.933Z,1.60
2022-09-27T18:22:33.375Z,1.63
2022-09-27T18:25:05.418Z,1.17
2022-09-27T18:27:34.565Z,1.38
2022-09-27T18:30:03.387Z,1.13
2022-09-27T18:32:33.497Z,2.00
2022-09-27T18:35:00.690Z,2.50
2022-09-27T18:37:30.391Z,2.65
2022-09-27T18:39:57.460Z,1.70
2022-09-27T18:42:26.699Z,2.90
2022-09-27T18:44:57.013Z,1.50
2022-09-27T18:47:29.551Z,1.48
2022-09-27T18:49:56.883Z,1.27
2022-09-27T18:52:25.469Z,1.42
2022-09-27T18:54:55.314Z,0.93
2022-09-27T18:57:24.494Z,0.63
2022-09-27T18:59:51.980Z,0.90
2022-09-27T19:02:21.382Z,1.20
2022-09-27T19:04:48.731Z,1.00
2022-09-27T19:07:18.359Z,1.15
2022-09-27T19:09:48.124Z,1.30
2022-09-27T19:12:17.748Z,0.85
2022-09-27T19:14:45.117Z,1.15
2022-09-27T19:17:12.230Z,1.02
2022-09-27T19:19:39.818Z,1.02
2022-09-27T19:22:07.774Z,1.30
2022-09-27T19:24:34.882Z,1.50
2022-09-27T19:27:04.354Z,2.85
2022-09-27T19:29:35.000Z,3.00
2022-09-27T19:32:04.371Z,2.63
2022-09-27T19:34:33.844Z,2.53
2022-09-27T19:37:03.222Z,2.38
2022-09-27T19:39:32.983Z,2.38
2022-09-27T19:42:00.072Z,3.60
2022-09-27T19:44:27.567Z,4.55
2022-09-27T19:46:55.356Z,2.88
2022-09-27T19:49:27.115Z,3.13
2022-09-27T19:54:23.894Z,4.20
2022-09-27T19:56:50.977Z,4.45
2022-09-27T19:59:20.854Z,4.60
2022-09-27T20:01:48.543Z,4.45
2022-09-27T20:04:18.577Z,5.50
2022-09-27T20:06:50.608Z,5.20
2022-09-27T20:09:20.162Z,4.57
2022-09-27T20:11:47.748Z,7.15
2022-09-27T20:14:17.146Z,6.38
2022-09-27T20:16:44.647Z,7.25
2022-09-27T20:19:12.365Z,6.95
2022-09-27T20:21:39.871Z,8.50
2022-09-27T20:24:07.104Z,8.10
2022-09-27T20:26:37.983Z,8.35
2022-09-27T20:29:06.778Z,7.78
2022-09-27T20:32:02.982Z,8.40
2022-09-27T20:34:33.073Z,7.60
2022-09-27T20:37:00.244Z,7.43
2022-09-27T20:39:34.110Z,7.55
2022-09-27T20:42:01.573Z,6.55
2022-09-27T20:44:28.722Z,7.32
2022-09-27T20:46:55.938Z,6.32
2022-09-27T20:49:28.165Z,6.45
2022-09-27T20:51:55.279Z,6.35
2022-09-27T20:54:24.639Z,6.15
2022-09-27T20:56:52.702Z,5.75
2022-09-27T20:59:23.329Z,6.55
2022-09-27T21:01:53.654Z,5.43
2022-09-27T21:04:22.389Z,4.65
2022-09-27T21:06:49.647Z,5.68
2022-09-27T21:09:19.378Z,5.30
2022-09-27T21:11:48.443Z,5.70
2022-09-27T21:14:16.089Z,4.93
2022-09-27T21:16:43.421Z,5.55
2022-09-27T21:19:11.292Z,6.38
2022-09-27T21:21:40.995Z,6.05
2022-09-27T21:24:08.530Z,6.80
2022-09-27T21:26:36.298Z,8.18
2022-09-27T21:29:08.850Z,7.35
2022-09-27T21:31:38.987Z,8.48
2022-09-27T21:34:09.513Z,8.80
2022-09-27T21:36:42.327Z,8.57
2022-09-27T21:39:10.207Z,8.90
2022-09-27T21:41:40.627Z,7.40
2022-09-27T21:44:08.437Z,7.25
2022-09-27T21:46:40.434Z,7.55
2022-09-27T21:51:40.243Z,8.05
2022-09-27T21:54:10.111Z,7.10
2022-09-27T21:59:12.119Z,6.20
2022-09-27T22:01:39.655Z,6.70
2022-09-27T22:04:07.209Z,7.22
2022-09-27T22:06:36.831Z,6.50
2022-09-27T22:09:07.114Z,6.88
2022-09-27T22:11:42.494Z,6.10
2022-09-27T22:14:11.001Z,6.50
2022-09-27T22:16:45.958Z,6.18
2022-09-27T22:19:18.437Z,6.32
2022-09-27T22:21:46.209Z,6.22
2022-09-27T22:24:16.559Z,5.95
2022-09-27T22:26:50.458Z,6.78
2022-09-27T22:29:22.410Z,6.28
2022-09-27T22:31:49.612Z,6.55
2022-09-27T22:34:28.069Z,7.28
2022-09-27T22:36:57.598Z,7.38
2022-09-27T22:39:27.070Z,6.43
2022-09-27T22:41:54.261Z,7.30
2022-09-27T22:44:24.167Z,7.65
2022-09-27T22:46:51.512Z,7.90
2022-09-27T22:49:18.804Z,7.57
2022-09-27T22:51:46.456Z,8.15
2022-09-27T22:54:13.778Z,9.00
2022-09-27T22:56:40.881Z,8.88
2022-09-27T22:59:12.745Z,8.88
2022-09-27T23:04:14.294Z,7.55
2022-09-27T23:06:42.758Z,9.00
2022-09-27T23:09:12.653Z,8.25
2022-09-27T23:11:43.133Z,7.85
2022-09-27T23:14:12.451Z,7.35
2022-09-27T23:16:42.074Z,9.02
2022-09-27T23:19:11.657Z,7.32
2022-09-27T23:21:42.085Z,8.00
2022-09-27T23:24:10.578Z,7.13
2022-09-27T23:26:40.066Z,7.78
2022-09-27T23:29:07.336Z,7.80
2022-09-27T23:31:37.064Z,8.05
2022-09-27T23:34:04.930Z,7.40
2022-09-27T23:36:32.156Z,7.53
2022-09-27T23:39:01.842Z,8.23
2022-09-27T23:41:29.192Z,7.22
2022-09-27T23:43:56.607Z,7.22
2022-09-27T23:46:25.009Z,7.28
2022-09-27T23:48:53.453Z,6.88
2022-09-27T23:51:23.014Z,7.45
2022-09-27T23:53:52.703Z,7.68
2022-09-27T23:56:22.472Z,7.47
2022-09-27T23:58:54.173Z,6.75
